Gainsborough, United Kingdom
Current Conditions -  °F | °C
As of 5:50 PM on Thursday 29 Jan 2015 (Local Time) from EGXP Reporting Station
Scattered Clouds Scattered Clouds  
Wind Chill: -4°   Ceiling: Unl
Heat Index: -1°   Visibility: 6mi
Dew Point: -1°   Wind: 6mph
Humidity: 100%   Direction: 290°WNW
Pressure: 28.76"   Gusts: NA
Location:  53.38°N, 0.77°W
Report Text: EGXP 291750Z AUTO 29005KT 9999 // FEW021/// SCT060/// M01/M01 Q0974
Loading
Personal Weather Stations






























Interactive Weather Map New forecast layout! Learn more

10-Day Weather Forecast

Advertisements
Track Severe Weather on mobile